Time;durP1;ratioP1;P1;durP2;ratioP2;P2;SDS_P1;SDS_P2;PMS_P1;PMS_P2;Temp;Humidity;BMP_temperature;BMP_pressure;BME280_temperature;BME280_humidity;BME280_pressure;Samples;Min_cycle;Max_cycle;Signal;HPM_P1;HPM_P2
2022/08/28 00:02:14;;;;;;;;;;;15.00;99.90;;;;;;5017252;28;19925;-75
2022/08/28 00:04:41;;;;;;;;;;;15.00;99.90;;;;;;5008590;28;19932;-75
2022/08/28 00:07:08;;;;;;;;;;;14.90;99.90;;;;;;5013173;28;19922;-76
2022/08/28 00:09:34;;;;;;;;;;;14.90;99.90;;;;;;5014781;28;20399;-76
2022/08/28 00:12:01;;;;;;;;;;;14.80;99.90;;;;;;5013597;28;19952;-76
2022/08/28 00:14:28;;;;;;;;;;;14.80;99.90;;;;;;5010019;28;19921;-75
2022/08/28 00:16:55;;;;;;;;;;;14.80;99.90;;;;;;5018658;28;19921;-76
2022/08/28 00:19:23;;;;;;;;;;;14.80;99.90;;;;;;5017448;28;19921;-76
2022/08/28 00:21:49;;;;;;;;;;;14.70;99.90;;;;;;5032224;28;19920;-76
2022/08/28 00:24:16;;;;;;;;;;;14.70;99.90;;;;;;5029897;28;19947;-76
2022/08/28 00:29:29;;;;;;;;;;;14.70;99.90;;;;;;5025527;28;20029;-76
2022/08/28 00:31:56;;;;;;;;;;;14.70;99.90;;;;;;5029187;28;20364;-77
2022/08/28 00:34:23;;;;;;;;;;;14.60;99.90;;;;;;5023291;28;19921;-76
2022/08/28 00:36:59;;;;;;;;;;;14.60;99.90;;;;;;5030650;28;19951;-75
2022/08/28 00:39:26;;;;;;;;;;;14.60;99.90;;;;;;5024823;28;20166;-75
2022/08/28 00:41:54;;;;;;;;;;;14.50;99.90;;;;;;5026191;28;19921;-76
2022/08/28 00:44:23;;;;;;;;;;;14.50;99.90;;;;;;5026631;28;19929;-76
2022/08/28 00:46:51;;;;;;;;;;;14.50;99.90;;;;;;5023578;28;19963;-76
2022/08/28 00:49:18;;;;;;;;;;;14.50;99.90;;;;;;5012914;28;19921;-77
2022/08/28 00:54:32;;;;;;;;;;;14.40;99.90;;;;;;5020681;28;20404;-76
2022/08/28 00:57:01;;;;;;;;;;;14.30;99.90;;;;;;5021737;28;20372;-76
2022/08/28 00:59:27;;;;;;;;;;;14.30;99.90;;;;;;5012018;28;19928;-76
2022/08/28 01:01:55;;;;;;;;;;;14.30;99.90;;;;;;5022294;28;20287;-76
2022/08/28 01:04:23;;;;;;;;;;;14.30;99.90;;;;;;5029741;28;19921;-77
2022/08/28 01:06:53;;;;;;;;;;;14.20;99.90;;;;;;5012467;28;19929;-76
2022/08/28 01:09:21;;;;;;;;;;;14.20;99.90;;;;;;5020984;28;19954;-72
2022/08/28 01:11:48;;;;;;;;;;;14.20;99.90;;;;;;5024289;28;19922;-76
2022/08/28 01:14:15;;;;;;;;;;;14.20;99.90;;;;;;5029328;28;19921;-76
2022/08/28 01:16:42;;;;;;;;;;;14.20;99.90;;;;;;5009416;28;20390;-75
2022/08/28 01:19:11;;;;;;;;;;;14.10;99.90;;;;;;5008188;28;19925;-76
2022/08/28 01:21:44;;;;;;;;;;;14.10;99.90;;;;;;5020562;28;19928;-76
2022/08/28 01:24:13;;;;;;;;;;;14.10;99.90;;;;;;5032642;28;19929;-76
2022/08/28 01:26:40;;;;;;;;;;;14.10;99.90;;;;;;5031473;28;19924;-74
2022/08/28 01:29:07;;;;;;;;;;;14.00;99.90;;;;;;5037460;28;19924;-76
2022/08/28 01:31:34;;;;;;;;;;;14.00;99.90;;;;;;5037709;28;19929;-76
2022/08/28 01:34:01;;;;;;;;;;;14.00;99.90;;;;;;5026673;28;19921;-75
2022/08/28 01:36:28;;;;;;;;;;;13.90;99.90;;;;;;5024040;28;19928;-76
2022/08/28 01:38:55;;;;;;;;;;;13.90;99.90;;;;;;5019385;28;20364;-75
2022/08/28 01:41:22;;;;;;;;;;;13.90;99.90;;;;;;5013398;28;19929;-74
2022/08/28 01:43:49;;;;;;;;;;;13.80;99.90;;;;;;5018092;28;19921;-76
2022/08/28 01:46:16;;;;;;;;;;;13.80;99.90;;;;;;5017855;28;20008;-76
2022/08/28 01:48:43;;;;;;;;;;;13.80;99.90;;;;;;5021717;28;19929;-75
2022/08/28 01:51:11;;;;;;;;;;;13.80;99.90;;;;;;5014373;28;19921;-76
2022/08/28 01:53:37;;;;;;;;;;;13.70;99.90;;;;;;5026763;28;19936;-76
2022/08/28 01:56:06;;;;;;;;;;;13.70;99.90;;;;;;5030420;28;19921;-75
2022/08/28 01:58:34;;;;;;;;;;;13.70;99.90;;;;;;5020273;28;19921;-76
2022/08/28 02:01:13;;;;;;;;;;;13.60;99.90;;;;;;5018810;28;19921;-76
2022/08/28 02:03:41;;;;;;;;;;;13.70;99.90;;;;;;5029221;28;19935;-75
2022/08/28 02:06:09;;;;;;;;;;;13.60;99.90;;;;;;5027124;28;19921;-76
2022/08/28 02:08:36;;;;;;;;;;;13.60;99.90;;;;;;5018584;28;19921;-76
2022/08/28 02:11:05;;;;;;;;;;;13.60;99.90;;;;;;5018043;28;19971;-76
2022/08/28 02:13:32;;;;;;;;;;;13.60;99.90;;;;;;5044174;28;20400;-75
2022/08/28 02:15:59;;;;;;;;;;;13.50;99.90;;;;;;5019853;28;20016;-76
2022/08/28 02:18:26;;;;;;;;;;;13.50;99.90;;;;;;5019766;28;20708;-76
2022/08/28 02:20:53;;;;;;;;;;;13.50;99.90;;;;;;5032582;28;19921;-76
2022/08/28 02:23:20;;;;;;;;;;;13.50;99.90;;;;;;5024800;28;19936;-76
2022/08/28 02:25:47;;;;;;;;;;;13.40;99.90;;;;;;5024152;28;19925;-76
2022/08/28 02:28:16;;;;;;;;;;;13.40;99.90;;;;;;5026311;28;20017;-75
2022/08/28 02:30:43;;;;;;;;;;;13.40;99.90;;;;;;5016975;28;20373;-77
2022/08/28 02:33:10;;;;;;;;;;;13.40;99.90;;;;;;5029403;28;19948;-76
2022/08/28 02:35:39;;;;;;;;;;;13.30;99.90;;;;;;5021809;28;20385;-76
2022/08/28 02:38:05;;;;;;;;;;;13.30;99.90;;;;;;5021693;28;19928;-76
2022/08/28 02:40:32;;;;;;;;;;;13.30;99.90;;;;;;5016678;28;19923;-76
2022/08/28 02:42:59;;;;;;;;;;;13.30;99.90;;;;;;5015155;28;20413;-76
2022/08/28 02:45:26;;;;;;;;;;;13.20;99.90;;;;;;5016388;28;19922;-75
2022/08/28 02:47:53;;;;;;;;;;;13.30;99.90;;;;;;5014274;28;20289;-76
2022/08/28 02:50:20;;;;;;;;;;;13.20;99.90;;;;;;5018059;28;19921;-76
2022/08/28 02:52:47;;;;;;;;;;;13.20;99.90;;;;;;5030665;28;20380;-75
2022/08/28 02:55:16;;;;;;;;;;;13.20;99.90;;;;;;5029450;28;19921;-75
2022/08/28 02:57:43;;;;;;;;;;;13.20;99.90;;;;;;5016046;28;19929;-75
2022/08/28 03:00:11;;;;;;;;;;;13.20;99.90;;;;;;5014968;28;19929;-76
2022/08/28 03:02:38;;;;;;;;;;;13.20;99.90;;;;;;5016558;28;19930;-76
2022/08/28 03:05:05;;;;;;;;;;;13.20;99.90;;;;;;5015012;28;19921;-76
2022/08/28 03:07:32;;;;;;;;;;;13.20;99.90;;;;;;5014653;28;19928;-74
2022/08/28 03:09:59;;;;;;;;;;;13.10;99.90;;;;;;5026056;28;19928;-75
2022/08/28 03:12:26;;;;;;;;;;;13.10;99.90;;;;;;5023233;28;20704;-74
2022/08/28 03:14:53;;;;;;;;;;;13.10;99.90;;;;;;5014841;28;19929;-75
2022/08/28 03:17:20;;;;;;;;;;;13.00;99.90;;;;;;5027124;28;19921;-76
2022/08/28 03:19:48;;;;;;;;;;;13.00;99.90;;;;;;5028418;28;19932;-76
2022/08/28 03:22:16;;;;;;;;;;;13.00;99.90;;;;;;5015179;28;20061;-76
2022/08/28 03:24:43;;;;;;;;;;;13.00;99.90;;;;;;5026336;28;19921;-75
2022/08/28 03:27:10;;;;;;;;;;;13.00;99.90;;;;;;5013480;28;19921;-75
2022/08/28 03:29:37;;;;;;;;;;;12.90;99.90;;;;;;5032100;28;19928;-75
2022/08/28 03:32:04;;;;;;;;;;;12.90;99.90;;;;;;5029316;28;19921;-75
2022/08/28 03:34:32;;;;;;;;;;;12.90;99.90;;;;;;5015121;28;19925;-73
2022/08/28 03:37:00;;;;;;;;;;;12.90;99.90;;;;;;5016687;28;19921;-76
2022/08/28 03:39:26;;;;;;;;;;;12.90;99.90;;;;;;5013444;28;19925;-76
2022/08/28 03:41:53;;;;;;;;;;;12.90;99.90;;;;;;5017668;28;20273;-75
2022/08/28 03:44:20;;;;;;;;;;;12.90;99.90;;;;;;5015617;28;19928;-76
2022/08/28 03:46:47;;;;;;;;;;;12.90;99.90;;;;;;5014110;28;19921;-76
2022/08/28 03:49:14;;;;;;;;;;;12.90;99.90;;;;;;5016292;28;20346;-75
2022/08/28 03:51:42;;;;;;;;;;;12.90;99.90;;;;;;5032368;28;19921;-75
2022/08/28 03:54:09;;;;;;;;;;;12.90;99.90;;;;;;5032220;28;19925;-74
2022/08/28 03:56:36;;;;;;;;;;;12.90;99.90;;;;;;5016993;28;20373;-74
2022/08/28 03:59:04;;;;;;;;;;;12.90;99.90;;;;;;5020193;28;19921;-76
2022/08/28 04:01:32;;;;;;;;;;;12.90;99.90;;;;;;5025273;28;19924;-73
2022/08/28 04:03:59;;;;;;;;;;;13.00;99.90;;;;;;5026779;28;19921;-74
2022/08/28 04:06:26;;;;;;;;;;;13.00;99.90;;;;;;5014493;28;19928;-76
2022/08/28 04:08:54;;;;;;;;;;;13.00;99.90;;;;;;5031596;28;19921;-75
2022/08/28 04:11:26;;;;;;;;;;;13.00;99.90;;;;;;5029294;28;19932;-76
2022/08/28 04:13:52;;;;;;;;;;;13.10;99.90;;;;;;5038943;28;19928;-75
2022/08/28 04:16:19;;;;;;;;;;;13.10;99.90;;;;;;5027271;28;20261;-74
2022/08/28 04:18:46;;;;;;;;;;;13.20;99.90;;;;;;5031636;28;19967;-76
2022/08/28 04:21:18;;;;;;;;;;;13.20;99.90;;;;;;5031994;28;20299;-75
2022/08/28 04:23:45;;;;;;;;;;;13.30;99.90;;;;;;5010165;28;20391;-76
2022/08/28 04:26:12;;;;;;;;;;;13.40;99.90;;;;;;5036496;28;19936;-75
2022/08/28 04:28:39;;;;;;;;;;;13.40;99.90;;;;;;5028530;28;19921;-75
2022/08/28 04:31:07;;;;;;;;;;;13.40;99.90;;;;;;5013672;28;20377;-75
2022/08/28 04:33:34;;;;;;;;;;;13.40;99.90;;;;;;5014081;28;19921;-75
2022/08/28 04:36:02;;;;;;;;;;;13.40;99.90;;;;;;5012324;28;19921;-75
2022/08/28 04:38:28;;;;;;;;;;;13.40;99.90;;;;;;4996719;28;20361;-76
2022/08/28 04:40:55;;;;;;;;;;;13.40;99.90;;;;;;5014428;28;20361;-75
2022/08/28 04:43:24;;;;;;;;;;;13.30;99.90;;;;;;5015221;28;20381;-76
2022/08/28 04:45:51;;;;;;;;;;;13.30;99.90;;;;;;5018072;28;19926;-76
2022/08/28 04:48:18;;;;;;;;;;;13.20;99.90;;;;;;5013005;28;19921;-76
2022/08/28 04:50:45;;;;;;;;;;;13.20;99.90;;;;;;5013591;28;19925;-76
2022/08/28 04:53:13;;;;;;;;;;;13.20;99.90;;;;;;5015680;28;19940;-75
2022/08/28 04:55:40;;;;;;;;;;;13.10;99.90;;;;;;5023275;28;19944;-75
2022/08/28 04:58:19;;;;;;;;;;;13.10;99.90;;;;;;5014068;28;19979;-75
2022/08/28 05:00:50;;;;;;;;;;;13.10;99.90;;;;;;5014500;28;19922;-76
2022/08/28 05:03:17;;;;;;;;;;;13.10;99.90;;;;;;5031081;28;20284;-75
2022/08/28 05:05:44;;;;;;;;;;;13.10;99.90;;;;;;5030567;28;19921;-77
2022/08/28 05:08:11;;;;;;;;;;;13.10;99.90;;;;;;5031367;28;20284;-76
2022/08/28 05:10:39;;;;;;;;;;;13.10;99.90;;;;;;5028455;28;19933;-75
2022/08/28 05:13:07;;;;;;;;;;;13.00;99.90;;;;;;4997605;28;19991;-77
2022/08/28 05:15:39;;;;;;;;;;;13.00;99.90;;;;;;5018966;28;19928;-76
2022/08/28 05:18:06;;;;;;;;;;;13.00;99.90;;;;;;5011179;28;19921;-75
2022/08/28 05:20:36;;;;;;;;;;;13.00;99.90;;;;;;5029099;28;19920;-75
2022/08/28 05:23:03;;;;;;;;;;;13.00;99.90;;;;;;5011728;28;19928;-76
2022/08/28 05:25:33;;;;;;;;;;;13.00;99.90;;;;;;5022078;28;19925;-74
2022/08/28 05:28:00;;;;;;;;;;;13.00;99.90;;;;;;5026864;28;19927;-75
2022/08/28 05:30:27;;;;;;;;;;;13.10;99.90;;;;;;5031302;28;19921;-76
2022/08/28 05:32:54;;;;;;;;;;;13.10;99.90;;;;;;5013669;28;19922;-75
2022/08/28 05:35:21;;;;;;;;;;;13.10;99.90;;;;;;5028828;28;19964;-75
2022/08/28 05:37:47;;;;;;;;;;;13.10;99.90;;;;;;5018524;28;19936;-76
2022/08/28 05:40:15;;;;;;;;;;;13.20;99.90;;;;;;4997783;28;19927;-76
2022/08/28 05:42:43;;;;;;;;;;;13.20;99.90;;;;;;5012011;28;20345;-76
2022/08/28 05:45:10;;;;;;;;;;;13.20;99.90;;;;;;5020330;28;19960;-72
2022/08/28 05:47:37;;;;;;;;;;;13.30;99.90;;;;;;5018679;28;19922;-76
2022/08/28 05:50:04;;;;;;;;;;;13.40;99.90;;;;;;5024978;28;20323;-76
2022/08/28 05:52:33;;;;;;;;;;;13.30;99.90;;;;;;5030325;28;19921;-75
2022/08/28 05:54:59;;;;;;;;;;;13.40;99.90;;;;;;5023000;28;19937;-76
2022/08/28 05:57:26;;;;;;;;;;;13.40;99.90;;;;;;5012514;28;19921;-73
2022/08/28 05:59:53;;;;;;;;;;;13.50;99.90;;;;;;5017734;28;20371;-76
2022/08/28 06:02:20;;;;;;;;;;;13.50;99.90;;;;;;5031778;28;19921;-76
2022/08/28 06:04:47;;;;;;;;;;;13.60;99.90;;;;;;5029399;28;19959;-76
2022/08/28 06:07:14;;;;;;;;;;;13.60;99.90;;;;;;5016215;28;19928;-76
2022/08/28 06:09:41;;;;;;;;;;;13.60;99.90;;;;;;5016886;28;19928;-76
2022/08/28 06:12:08;;;;;;;;;;;13.70;99.90;;;;;;5022934;28;20369;-76
2022/08/28 06:14:37;;;;;;;;;;;13.80;99.90;;;;;;5017224;28;20357;-76
2022/08/28 06:17:04;;;;;;;;;;;13.80;99.90;;;;;;5031355;28;19940;-76
2022/08/28 06:19:31;;;;;;;;;;;13.90;99.90;;;;;;5033077;28;20399;-76
2022/08/28 06:21:59;;;;;;;;;;;13.90;99.90;;;;;;5010775;28;19921;-75
2022/08/28 06:24:26;;;;;;;;;;;14.00;99.90;;;;;;5032456;28;19936;-76
2022/08/28 06:26:53;;;;;;;;;;;14.00;99.90;;;;;;5014623;28;19971;-76
2022/08/28 06:29:24;;;;;;;;;;;14.10;99.90;;;;;;5011843;28;19944;-76
2022/08/28 06:31:57;;;;;;;;;;;14.20;99.90;;;;;;5033283;28;19921;-75
2022/08/28 06:34:24;;;;;;;;;;;14.20;99.90;;;;;;5024920;28;19921;-75
2022/08/28 06:36:51;;;;;;;;;;;14.30;99.90;;;;;;5021702;28;20368;-76
2022/08/28 06:39:19;;;;;;;;;;;14.40;99.90;;;;;;5015601;28;19988;-76
2022/08/28 06:41:46;;;;;;;;;;;14.50;99.90;;;;;;5029303;28;19928;-76
2022/08/28 06:44:18;;;;;;;;;;;14.60;99.90;;;;;;5029334;28;19947;-76
2022/08/28 06:46:45;;;;;;;;;;;14.80;99.90;;;;;;5032400;28;19921;-76
2022/08/28 06:49:12;;;;;;;;;;;14.90;99.90;;;;;;5020797;28;19971;-76
2022/08/28 06:51:39;;;;;;;;;;;15.00;99.90;;;;;;5015393;28;19996;-76
2022/08/28 06:54:06;;;;;;;;;;;15.10;99.90;;;;;;5029701;28;19921;-72
2022/08/28 06:56:33;;;;;;;;;;;15.20;99.90;;;;;;5014651;28;19921;-68
2022/08/28 06:58:59;;;;;;;;;;;15.40;99.90;;;;;;5014785;28;19932;-75
2022/08/28 07:01:27;;;;;;;;;;;15.60;99.90;;;;;;5014970;28;19947;-74
2022/08/28 07:03:57;;;;;;;;;;;15.60;99.90;;;;;;4997062;28;19965;-74
2022/08/28 07:06:24;;;;;;;;;;;15.70;99.90;;;;;;5016174;28;19975;-75
2022/08/28 07:08:51;;;;;;;;;;;15.80;99.90;;;;;;5016135;28;19973;-75
2022/08/28 07:11:19;;;;;;;;;;;15.90;99.90;;;;;;5003580;28;19921;-75
2022/08/28 07:13:46;;;;;;;;;;;16.00;99.90;;;;;;5016011;28;19928;-75
2022/08/28 07:16:13;;;;;;;;;;;16.00;99.90;;;;;;5022229;28;19921;-74
2022/08/28 07:18:42;;;;;;;;;;;16.10;99.90;;;;;;5028325;28;19921;-74
2022/08/28 07:21:09;;;;;;;;;;;16.20;99.90;;;;;;5025098;28;19930;-73
2022/08/28 07:23:38;;;;;;;;;;;16.20;99.90;;;;;;5022177;28;20384;-73
2022/08/28 07:26:06;;;;;;;;;;;16.30;99.90;;;;;;5021665;28;19929;-75
2022/08/28 07:28:33;;;;;;;;;;;16.30;99.90;;;;;;5015017;28;19922;-74
2022/08/28 07:31:01;;;;;;;;;;;16.40;99.90;;;;;;5013429;28;20011;-72
2022/08/28 07:33:28;;;;;;;;;;;16.40;99.90;;;;;;5014640;28;19952;-75
2022/08/28 07:35:55;;;;;;;;;;;16.40;99.90;;;;;;5022748;28;19967;-75
2022/08/28 07:38:23;;;;;;;;;;;16.50;99.90;;;;;;5029452;28;19928;-74
2022/08/28 07:40:50;;;;;;;;;;;16.50;99.90;;;;;;5017213;28;19925;-74
2022/08/28 07:46:05;;;;;;;;;;;16.60;99.90;;;;;;5028101;28;19921;-75
2022/08/28 07:48:36;;;;;;;;;;;16.70;99.90;;;;;;5029112;28;19928;-75
2022/08/28 07:51:03;;;;;;;;;;;16.80;99.90;;;;;;5027304;28;19921;-72
2022/08/28 07:53:30;;;;;;;;;;;16.90;99.90;;;;;;5022342;28;20390;-74
2022/08/28 07:56:02;;;;;;;;;;;16.90;99.90;;;;;;5021392;28;19997;-73
2022/08/28 07:58:29;;;;;;;;;;;17.00;99.90;;;;;;5020748;28;19948;-73
2022/08/28 08:00:56;;;;;;;;;;;17.00;99.90;;;;;;5004094;28;19921;-66
2022/08/28 08:03:24;;;;;;;;;;;17.10;99.90;;;;;;5031743;28;19924;-75
2022/08/28 08:05:54;;;;;;;;;;;17.20;99.90;;;;;;5028993;28;19929;-71
2022/08/28 08:08:21;;;;;;;;;;;17.20;99.90;;;;;;5016007;28;20345;-73
2022/08/28 08:10:58;;;;;;;;;;;17.20;99.90;;;;;;5013491;28;19963;-72
2022/08/28 08:13:26;;;;;;;;;;;17.30;99.90;;;;;;5014533;28;19968;-65
2022/08/28 08:15:53;;;;;;;;;;;17.40;99.90;;;;;;5016095;28;19928;-67
2022/08/28 08:18:20;;;;;;;;;;;17.50;99.90;;;;;;5017491;28;19948;-63
2022/08/28 08:20:50;;;;;;;;;;;17.60;99.90;;;;;;5022701;28;19976;-65
2022/08/28 08:23:17;;;;;;;;;;;17.70;99.90;;;;;;5020039;28;19921;-62
2022/08/28 08:25:54;;;;;;;;;;;17.70;99.90;;;;;;5033575;28;19950;-66
2022/08/28 08:28:21;;;;;;;;;;;17.80;99.90;;;;;;5028181;28;19932;-65
2022/08/28 08:30:48;;;;;;;;;;;17.80;99.90;;;;;;5027525;28;19925;-75
2022/08/28 08:33:15;;;;;;;;;;;17.90;99.90;;;;;;5014482;28;20376;-64
2022/08/28 08:35:42;;;;;;;;;;;18.10;99.90;;;;;;5013575;28;20389;-66
2022/08/28 08:38:09;;;;;;;;;;;18.10;99.90;;;;;;5011401;28;19925;-64
2022/08/28 08:40:36;;;;;;;;;;;18.20;99.90;;;;;;5020580;28;19927;-63
2022/08/28 08:43:03;;;;;;;;;;;18.30;99.90;;;;;;5032703;28;19920;-63
2022/08/28 08:45:29;;;;;;;;;;;18.40;99.90;;;;;;5024150;28;20242;-65
2022/08/28 08:47:56;;;;;;;;;;;18.50;99.90;;;;;;5011579;28;19929;-68
2022/08/28 08:50:28;;;;;;;;;;;18.60;99.90;;;;;;5022830;28;19921;-67
2022/08/28 08:53:05;;;;;;;;;;;18.60;99.90;;;;;;5032903;28;19925;-65
2022/08/28 08:55:34;;;;;;;;;;;18.70;99.90;;;;;;5047280;28;19921;-64
2022/08/28 08:58:01;;;;;;;;;;;18.70;99.90;;;;;;5028806;28;19929;-66
2022/08/28 09:00:29;;;;;;;;;;;18.90;99.90;;;;;;5015843;28;19921;-65
2022/08/28 09:03:07;;;;;;;;;;;18.90;99.90;;;;;;5011260;28;19921;-63
2022/08/28 09:05:47;;;;;;;;;;;19.00;99.90;;;;;;5016159;28;19922;-65
2022/08/28 09:08:17;;;;;;;;;;;19.00;99.90;;;;;;5011524;28;19921;-64
2022/08/28 09:10:54;;;;;;;;;;;19.20;99.90;;;;;;5011805;28;20296;-64
2022/08/28 09:13:48;;;;;;;;;;;19.20;99.90;;;;;;5023726;28;19925;-64
2022/08/28 09:16:35;;;;;;;;;;;19.30;99.90;;;;;;5029842;28;20352;-63
2022/08/28 09:19:02;;;;;;;;;;;19.40;99.90;;;;;;5032333;28;19921;-64
2022/08/28 09:21:30;;;;;;;;;;;19.40;99.90;;;;;;5021710;28;20211;-65
2022/08/28 09:24:01;;;;;;;;;;;19.40;99.90;;;;;;5032585;28;19921;-64
2022/08/28 09:26:36;;;;;;;;;;;19.60;99.90;;;;;;5046272;28;19943;-63
2022/08/28 09:29:04;;;;;;;;;;;19.70;99.90;;;;;;5031299;28;19921;-63
2022/08/28 09:31:38;;;;;;;;;;;19.90;99.90;;;;;;5022654;28;19925;-63
2022/08/28 09:34:15;;;;;;;;;;;19.90;99.90;;;;;;5011129;28;19928;-63
2022/08/28 09:36:42;;;;;;;;;;;19.90;99.90;;;;;;5019377;28;19944;-63
2022/08/28 09:39:09;;;;;;;;;;;19.90;99.90;;;;;;5020821;28;19925;-63
2022/08/28 09:44:59;;;;;;;;;;;19.80;99.90;;;;;;5016269;28;19926;-63
2022/08/28 09:47:37;;;;;;;;;;;19.80;99.90;;;;;;5031245;28;19921;-63
2022/08/28 09:50:30;;;;;;;;;;;19.80;99.90;;;;;;5034790;28;20383;-63
2022/08/28 09:53:17;;;;;;;;;;;19.80;99.90;;;;;;5034067;28;19921;-63
2022/08/28 09:56:03;;;;;;;;;;;19.80;99.90;;;;;;4996855;28;19926;-63
2022/08/28 09:58:48;;;;;;;;;;;19.90;99.90;;;;;;5007929;28;19960;-63
2022/08/28 10:01:33;;;;;;;;;;;20.10;99.90;;;;;;4998887;28;20363;-63
2022/08/28 10:04:00;;;;;;;;;;;20.20;99.90;;;;;;5016031;28;19964;-63
2022/08/28 10:06:28;;;;;;;;;;;20.30;99.90;;;;;;5017127;28;19932;-69
2022/08/28 10:08:55;;;;;;;;;;;20.40;99.90;;;;;;5019591;28;19921;-63
2022/08/28 10:11:28;;;;;;;;;;;20.60;99.90;;;;;;5035555;28;20408;-63
2022/08/28 10:14:16;;;;;;;;;;;20.60;99.90;;;;;;5032241;28;19925;-64
2022/08/28 10:17:12;;;;;;;;;;;20.70;99.90;;;;;;5012358;28;19929;-64
2022/08/28 10:19:40;;;;;;;;;;;20.70;99.90;;;;;;5018899;28;20008;-63
2022/08/28 10:22:27;;;;;;;;;;;20.70;99.90;;;;;;5015590;28;20424;-65
2022/08/28 10:24:58;;;;;;;;;;;20.70;99.90;;;;;;5024393;28;19920;-63
2022/08/28 10:27:24;;;;;;;;;;;20.70;99.90;;;;;;5048422;28;19932;-63
2022/08/28 10:29:51;;;;;;;;;;;20.80;99.90;;;;;;5030298;28;19924;-63
2022/08/28 10:32:30;;;;;;;;;;;20.80;99.90;;;;;;5016066;28;19921;-63
2022/08/28 10:34:57;;;;;;;;;;;20.90;99.90;;;;;;5014426;28;19922;-69
2022/08/28 10:37:27;;;;;;;;;;;21.10;99.90;;;;;;5026745;28;19929;-62
2022/08/28 10:39:56;;;;;;;;;;;21.10;99.90;;;;;;5013745;28;19921;-63
2022/08/28 10:42:30;;;;;;;;;;;21.30;99.90;;;;;;5018814;28;19924;-63
2022/08/28 10:45:12;;;;;;;;;;;21.40;99.90;;;;;;5023883;28;19925;-63
2022/08/28 10:47:40;;;;;;;;;;;21.50;99.90;;;;;;5014252;28;20315;-63
2022/08/28 10:50:13;;;;;;;;;;;21.50;99.90;;;;;;5025494;28;19932;-66
2022/08/28 10:52:47;;;;;;;;;;;21.60;99.90;;;;;;5033427;28;19927;-63
2022/08/28 10:55:18;;;;;;;;;;;21.60;99.90;;;;;;5049595;28;19921;-63
2022/08/28 10:57:50;;;;;;;;;;;21.70;99.90;;;;;;5023318;28;19927;-62
2022/08/28 11:00:21;;;;;;;;;;;21.90;99.90;;;;;;5015548;28;19925;-63
2022/08/28 11:02:53;;;;;;;;;;;22.00;99.90;;;;;;5033292;28;19956;-64
2022/08/28 11:05:24;;;;;;;;;;;22.10;99.90;;;;;;5028026;28;19928;-64
2022/08/28 11:07:57;;;;;;;;;;;21.90;99.90;;;;;;5014612;28;20270;-63
2022/08/28 11:10:36;;;;;;;;;;;21.90;99.90;;;;;;5002427;28;19921;-63
2022/08/28 11:13:03;;;;;;;;;;;22.00;99.90;;;;;;5033133;28;19921;-68
2022/08/28 11:15:30;;;;;;;;;;;22.10;99.90;;;;;;5016863;28;20390;-72
2022/08/28 11:18:03;;;;;;;;;;;22.20;99.90;;;;;;5016221;28;20079;-65
2022/08/28 11:20:29;;;;;;;;;;;22.00;99.90;;;;;;5014400;28;20392;-64
2022/08/28 11:23:06;;;;;;;;;;;22.10;99.90;;;;;;5023149;28;19928;-65
2022/08/28 11:25:40;;;;;;;;;;;22.20;99.90;;;;;;5049638;28;19921;-65
2022/08/28 11:28:23;;;;;;;;;;;22.30;99.90;;;;;;5049292;28;19948;-65
2022/08/28 11:31:04;;;;;;;;;;;22.20;99.90;;;;;;5034093;28;19935;-67
2022/08/28 11:33:40;;;;;;;;;;;22.20;99.90;;;;;;5030926;28;19932;-65
2022/08/28 11:36:20;;;;;;;;;;;22.30;99.90;;;;;;5034160;28;19932;-66
2022/08/28 11:38:50;;;;;;;;;;;22.20;99.90;;;;;;5026327;28;19932;-70
2022/08/28 11:41:20;;;;;;;;;;;22.30;99.90;;;;;;5014452;28;19932;-66
2022/08/28 11:43:51;;;;;;;;;;;22.30;99.90;;;;;;5014171;28;19925;-69
2022/08/28 11:46:25;;;;;;;;;;;22.40;99.90;;;;;;5035844;28;19929;-65
2022/08/28 11:48:55;;;;;;;;;;;22.50;99.90;;;;;;5020116;28;19969;-65
2022/08/28 11:51:41;;;;;;;;;;;22.50;99.90;;;;;;5027643;28;20368;-65
2022/08/28 11:54:27;;;;;;;;;;;22.60;99.90;;;;;;5023047;28;20036;-68
2022/08/28 11:57:11;;;;;;;;;;;22.60;99.90;;;;;;5026785;28;19925;-65
2022/08/28 11:59:42;;;;;;;;;;;22.70;99.90;;;;;;4994193;28;19921;-74
2022/08/28 12:02:27;;;;;;;;;;;22.50;99.90;;;;;;5008920;28;19947;-69
2022/08/28 12:04:54;;;;;;;;;;;22.40;99.90;;;;;;5001672;28;19921;-65
2022/08/28 12:07:21;;;;;;;;;;;22.40;99.90;;;;;;5019864;28;19925;-67
2022/08/28 12:09:48;;;;;;;;;;;22.40;99.90;;;;;;5018243;28;20012;-65
2022/08/28 12:12:21;;;;;;;;;;;22.60;99.90;;;;;;5025296;28;20389;-67
2022/08/28 12:14:53;;;;;;;;;;;22.70;99.90;;;;;;5025879;28;19922;-65
2022/08/28 12:17:20;;;;;;;;;;;22.80;99.90;;;;;;5022327;28;19931;-72
2022/08/28 12:19:53;;;;;;;;;;;22.80;99.90;;;;;;5012398;28;19931;-65
2022/08/28 12:22:23;;;;;;;;;;;22.90;99.90;;;;;;5016331;28;19925;-67
2022/08/28 12:24:56;;;;;;;;;;;23.00;99.90;;;;;;5039657;28;19929;-67
2022/08/28 12:27:23;;;;;;;;;;;23.00;99.90;;;;;;4996588;28;19922;-66
2022/08/28 12:29:55;;;;;;;;;;;23.00;99.90;;;;;;5024535;28;19960;-66
2022/08/28 12:32:34;;;;;;;;;;;23.10;99.90;;;;;;5018288;28;19933;-69
2022/08/28 12:35:01;;;;;;;;;;;23.10;99.90;;;;;;5017761;28;19928;-66
2022/08/28 12:37:28;;;;;;;;;;;23.20;99.90;;;;;;5026685;28;19928;-70
2022/08/28 12:39:55;;;;;;;;;;;23.20;98.90;;;;;;5013131;28;19921;-66
2022/08/28 12:42:23;;;;;;;;;;;23.10;98.20;;;;;;5012969;28;19929;-65
2022/08/28 12:44:50;;;;;;;;;;;23.20;98.60;;;;;;5011702;28;19928;-65
2022/08/28 12:47:17;;;;;;;;;;;23.20;97.10;;;;;;5014015;28;19922;-65
2022/08/28 12:49:44;;;;;;;;;;;23.30;97.70;;;;;;5014178;28;19928;-65
2022/08/28 12:52:12;;;;;;;;;;;23.30;98.40;;;;;;5024333;28;20448;-65
2022/08/28 12:54:43;;;;;;;;;;;23.30;98.10;;;;;;5026643;28;19931;-68
2022/08/28 12:57:11;;;;;;;;;;;23.30;96.20;;;;;;5018695;28;19921;-73
2022/08/28 12:59:43;;;;;;;;;;;23.30;97.40;;;;;;5009657;28;19971;-75
2022/08/28 13:02:11;;;;;;;;;;;23.30;97.40;;;;;;5026900;28;19921;-74
2022/08/28 13:04:40;;;;;;;;;;;23.20;96.70;;;;;;5029204;28;19944;-73
2022/08/28 13:07:09;;;;;;;;;;;23.30;97.70;;;;;;5020513;28;19983;-72
2022/08/28 13:09:36;;;;;;;;;;;23.30;96.10;;;;;;5014068;28;20000;-67
2022/08/28 13:12:03;;;;;;;;;;;23.50;96.10;;;;;;5031652;28;20287;-67
2022/08/28 13:14:36;;;;;;;;;;;23.50;95.90;;;;;;5022293;28;19925;-67
2022/08/28 13:17:03;;;;;;;;;;;23.50;96.60;;;;;;5011386;28;20019;-66
2022/08/28 13:19:30;;;;;;;;;;;23.40;97.50;;;;;;5010878;28;20238;-73
2022/08/28 13:21:59;;;;;;;;;;;23.30;97.20;;;;;;5013194;28;19928;-66
2022/08/28 13:24:26;;;;;;;;;;;23.30;98.50;;;;;;5018550;28;20381;-69
2022/08/28 13:27:05;;;;;;;;;;;23.30;97.40;;;;;;5012694;28;19965;-66
2022/08/28 13:29:32;;;;;;;;;;;23.40;98.10;;;;;;5027250;28;20376;-66
2022/08/28 13:32:03;;;;;;;;;;;23.60;97.60;;;;;;5018414;28;19936;-69
2022/08/28 13:34:34;;;;;;;;;;;23.70;97.70;;;;;;5038289;28;19932;-67
2022/08/28 13:37:02;;;;;;;;;;;23.70;96.80;;;;;;5011634;28;20349;-67
2022/08/28 13:39:33;;;;;;;;;;;23.80;96.30;;;;;;5013430;28;19948;-67
2022/08/28 13:42:06;;;;;;;;;;;23.70;96.30;;;;;;5031160;28;19921;-67
2022/08/28 13:44:33;;;;;;;;;;;23.60;96.30;;;;;;5029725;28;19924;-67
2022/08/28 13:47:00;;;;;;;;;;;23.50;96.70;;;;;;5011490;28;19928;-68
2022/08/28 13:49:27;;;;;;;;;;;23.60;97.30;;;;;;5014610;28;19921;-67
2022/08/28 13:51:54;;;;;;;;;;;23.80;97.10;;;;;;5012571;28;19921;-69
2022/08/28 13:54:22;;;;;;;;;;;23.90;97.60;;;;;;5015066;28;20048;-69
2022/08/28 13:56:51;;;;;;;;;;;24.10;96.50;;;;;;4999986;28;19991;-67
2022/08/28 13:59:18;;;;;;;;;;;23.80;96.20;;;;;;5007598;28;20369;-67
2022/08/28 14:04:31;;;;;;;;;;;23.60;97.80;;;;;;5003953;28;19921;-68
2022/08/28 14:06:58;;;;;;;;;;;23.50;98.50;;;;;;5034027;28;20000;-70
2022/08/28 14:09:25;;;;;;;;;;;23.40;98.50;;;;;;5009664;28;20372;-72
2022/08/28 14:11:54;;;;;;;;;;;23.30;98.40;;;;;;5008196;28;19922;-72
2022/08/28 14:14:21;;;;;;;;;;;23.20;98.60;;;;;;5002605;28;19940;-72
2022/08/28 14:16:50;;;;;;;;;;;23.10;99.30;;;;;;5024064;28;19925;-65
2022/08/28 14:19:17;;;;;;;;;;;23.20;99.60;;;;;;5019953;28;19921;-66
2022/08/28 14:21:44;;;;;;;;;;;23.30;99.90;;;;;;5017497;28;20365;-67
2022/08/28 14:24:11;;;;;;;;;;;23.50;99.50;;;;;;5009809;28;20004;-67
2022/08/28 14:26:38;;;;;;;;;;;23.50;98.20;;;;;;5016920;28;19922;-67
2022/08/28 14:29:06;;;;;;;;;;;23.40;98.50;;;;;;5026805;28;19925;-72
2022/08/28 14:31:35;;;;;;;;;;;23.50;97.80;;;;;;4997368;28;19925;-69
2022/08/28 14:34:03;;;;;;;;;;;23.50;97.50;;;;;;5027954;28;19924;-69
2022/08/28 14:36:30;;;;;;;;;;;23.50;97.40;;;;;;5017535;28;19925;-68
2022/08/28 14:38:57;;;;;;;;;;;23.40;97.60;;;;;;5017092;28;19921;-67
2022/08/28 14:41:29;;;;;;;;;;;23.20;98.30;;;;;;5020867;28;19968;-66
2022/08/28 14:43:56;;;;;;;;;;;23.10;97.50;;;;;;4994619;28;19926;-66